sensor_id;sensor_type;location;lat;lon;timestamp;temperature;humidity
85097;SHT30;75436;53.502;10.030;2024-03-02T00:00:50;8.21;88.05
85097;SHT30;75436;53.502;10.030;2024-03-02T00:03:17;8.15;87.98
85097;SHT30;75436;53.502;10.030;2024-03-02T00:05:43;8.16;87.94
85097;SHT30;75436;53.502;10.030;2024-03-02T00:08:09;8.14;88.04
85097;SHT30;75436;53.502;10.030;2024-03-02T00:10:38;8.12;88.11
85097;SHT30;75436;53.502;10.030;2024-03-02T00:13:06;8.11;88.31
85097;SHT30;75436;53.502;10.030;2024-03-02T00:15:47;8.09;88.16
85097;SHT30;75436;53.502;10.030;2024-03-02T00:18:19;8.16;88.00
85097;SHT30;75436;53.502;10.030;2024-03-02T00:20:45;8.14;88.03
85097;SHT30;75436;53.502;10.030;2024-03-02T00:23:15;8.16;88.03
85097;SHT30;75436;53.502;10.030;2024-03-02T00:25:52;8.21;87.95
85097;SHT30;75436;53.502;10.030;2024-03-02T00:28:27;8.16;88.09
85097;SHT30;75436;53.502;10.030;2024-03-02T00:31:05;8.18;88.25
85097;SHT30;75436;53.502;10.030;2024-03-02T00:33:35;8.21;88.13
85097;SHT30;75436;53.502;10.030;2024-03-02T00:36:05;8.20;88.14
85097;SHT30;75436;53.502;10.030;2024-03-02T00:38:33;8.18;88.38
85097;SHT30;75436;53.502;10.030;2024-03-02T00:41:04;8.15;88.43
85097;SHT30;75436;53.502;10.030;2024-03-02T00:44:08;8.15;88.51
85097;SHT30;75436;53.502;10.030;2024-03-02T00:46:36;8.14;88.55
85097;SHT30;75436;53.502;10.030;2024-03-02T00:49:22;8.09;88.66
85097;SHT30;75436;53.502;10.030;2024-03-02T00:51:51;8.15;88.63
85097;SHT30;75436;53.502;10.030;2024-03-02T00:54:23;8.06;88.95
85097;SHT30;75436;53.502;10.030;2024-03-02T00:56:50;8.04;89.40
85097;SHT30;75436;53.502;10.030;2024-03-02T00:59:16;7.95;89.74
85097;SHT30;75436;53.502;10.030;2024-03-02T01:01:42;7.93;89.99
85097;SHT30;75436;53.502;10.030;2024-03-02T01:04:08;7.90;90.29
85097;SHT30;75436;53.502;10.030;2024-03-02T01:06:35;7.85;90.35
85097;SHT30;75436;53.502;10.030;2024-03-02T01:09:00;7.84;90.49
85097;SHT30;75436;53.502;10.030;2024-03-02T01:11:26;7.81;90.61
85097;SHT30;75436;53.502;10.030;2024-03-02T01:13:51;7.91;90.07
85097;SHT30;75436;53.502;10.030;2024-03-02T01:16:17;7.85;90.24
85097;SHT30;75436;53.502;10.030;2024-03-02T01:18:43;7.84;90.19
85097;SHT30;75436;53.502;10.030;2024-03-02T01:21:08;7.84;90.41
85097;SHT30;75436;53.502;10.030;2024-03-02T01:23:34;7.78;90.23
85097;SHT30;75436;53.502;10.030;2024-03-02T01:25:59;7.74;90.45
85097;SHT30;75436;53.502;10.030;2024-03-02T01:28:25;7.67;91.01
85097;SHT30;75436;53.502;10.030;2024-03-02T01:30:50;7.64;91.05
85097;SHT30;75436;53.502;10.030;2024-03-02T01:33:19;7.62;91.11
85097;SHT30;75436;53.502;10.030;2024-03-02T01:35:45;7.57;91.17
85097;SHT30;75436;53.502;10.030;2024-03-02T01:38:10;7.53;91.32
85097;SHT30;75436;53.502;10.030;2024-03-02T01:40:37;7.52;91.55
85097;SHT30;75436;53.502;10.030;2024-03-02T01:43:06;7.49;91.66
85097;SHT30;75436;53.502;10.030;2024-03-02T01:45:33;7.46;91.86
85097;SHT30;75436;53.502;10.030;2024-03-02T01:47:59;7.46;91.84
85097;SHT30;75436;53.502;10.030;2024-03-02T01:50:32;7.40;91.93
85097;SHT30;75436;53.502;10.030;2024-03-02T01:52:59;7.36;92.15
85097;SHT30;75436;53.502;10.030;2024-03-02T01:55:24;7.39;92.04
85097;SHT30;75436;53.502;10.030;2024-03-02T01:57:51;7.40;92.14
85097;SHT30;75436;53.502;10.030;2024-03-02T02:00:19;7.40;92.11
85097;SHT30;75436;53.502;10.030;2024-03-02T02:02:46;7.37;92.04
85097;SHT30;75436;53.502;10.030;2024-03-02T02:05:12;7.33;92.19
85097;SHT30;75436;53.502;10.030;2024-03-02T02:07:38;7.30;92.30
85097;SHT30;75436;53.502;10.030;2024-03-02T02:10:04;7.32;92.42
85097;SHT30;75436;53.502;10.030;2024-03-02T02:12:29;7.29;92.46
85097;SHT30;75436;53.502;10.030;2024-03-02T02:14:55;7.29;92.57
85097;SHT30;75436;53.502;10.030;2024-03-02T02:17:20;7.26;92.54
85097;SHT30;75436;53.502;10.030;2024-03-02T02:19:46;7.26;92.61
85097;SHT30;75436;53.502;10.030;2024-03-02T02:22:12;7.25;92.64
85097;SHT30;75436;53.502;10.030;2024-03-02T02:24:43;7.23;92.64
85097;SHT30;75436;53.502;10.030;2024-03-02T02:27:09;7.27;92.77
85097;SHT30;75436;53.502;10.030;2024-03-02T02:29:35;7.29;92.55
85097;SHT30;75436;53.502;10.030;2024-03-02T02:32:01;7.33;92.52
85097;SHT30;75436;53.502;10.030;2024-03-02T02:34:26;7.36;92.38
85097;SHT30;75436;53.502;10.030;2024-03-02T02:36:52;7.32;92.32
85097;SHT30;75436;53.502;10.030;2024-03-02T02:39:21;7.30;92.34
85097;SHT30;75436;53.502;10.030;2024-03-02T02:41:48;7.29;92.43
85097;SHT30;75436;53.502;10.030;2024-03-02T02:44:13;7.36;92.37
85097;SHT30;75436;53.502;10.030;2024-03-02T02:46:40;7.36;92.07
85097;SHT30;75436;53.502;10.030;2024-03-02T02:49:05;7.30;92.13
85097;SHT30;75436;53.502;10.030;2024-03-02T02:51:31;7.29;92.23
85097;SHT30;75436;53.502;10.030;2024-03-02T02:53:56;7.35;92.17
85097;SHT30;75436;53.502;10.030;2024-03-02T02:56:22;7.30;92.18
85097;SHT30;75436;53.502;10.030;2024-03-02T02:58:47;7.27;92.29
85097;SHT30;75436;53.502;10.030;2024-03-02T03:01:13;7.27;92.34
85097;SHT30;75436;53.502;10.030;2024-03-02T03:03:38;7.29;92.30
85097;SHT30;75436;53.502;10.030;2024-03-02T03:06:04;7.30;92.12
85097;SHT30;75436;53.502;10.030;2024-03-02T03:08:29;7.25;92.25
85097;SHT30;75436;53.502;10.030;2024-03-02T03:10:55;7.20;92.34
85097;SHT30;75436;53.502;10.030;2024-03-02T03:13:20;7.25;92.48
85097;SHT30;75436;53.502;10.030;2024-03-02T03:15:45;7.26;92.33
85097;SHT30;75436;53.502;10.030;2024-03-02T03:18:11;7.27;92.21
85097;SHT30;75436;53.502;10.030;2024-03-02T03:20:36;7.26;92.32
85097;SHT30;75436;53.502;10.030;2024-03-02T03:23:03;7.25;92.30
85097;SHT30;75436;53.502;10.030;2024-03-02T03:25:30;7.27;92.17
85097;SHT30;75436;53.502;10.030;2024-03-02T03:27:55;7.25;92.11
85097;SHT30;75436;53.502;10.030;2024-03-02T03:30:21;7.26;92.12
85097;SHT30;75436;53.502;10.030;2024-03-02T03:32:46;7.23;92.14
85097;SHT30;75436;53.502;10.030;2024-03-02T03:35:13;7.27;92.08
85097;SHT30;75436;53.502;10.030;2024-03-02T03:37:40;7.23;92.01
85097;SHT30;75436;53.502;10.030;2024-03-02T03:40:06;7.19;92.02
85097;SHT30;75436;53.502;10.030;2024-03-02T03:42:36;7.18;92.10
85097;SHT30;75436;53.502;10.030;2024-03-02T03:45:05;7.22;92.10
85097;SHT30;75436;53.502;10.030;2024-03-02T03:47:32;7.16;92.16
85097;SHT30;75436;53.502;10.030;2024-03-02T03:49:57;7.20;92.04
85097;SHT30;75436;53.502;10.030;2024-03-02T03:52:23;7.18;91.99
85097;SHT30;75436;53.502;10.030;2024-03-02T03:54:49;7.19;91.91
85097;SHT30;75436;53.502;10.030;2024-03-02T03:57:15;7.14;91.87
85097;SHT30;75436;53.502;10.030;2024-03-02T03:59:41;7.16;91.88
85097;SHT30;75436;53.502;10.030;2024-03-02T04:02:06;7.12;91.87
85097;SHT30;75436;53.502;10.030;2024-03-02T04:04:32;7.15;91.88
85097;SHT30;75436;53.502;10.030;2024-03-02T04:06:58;7.15;91.94
85097;SHT30;75436;53.502;10.030;2024-03-02T04:09:24;7.18;91.64
85097;SHT30;75436;53.502;10.030;2024-03-02T04:11:50;7.22;91.48
85097;SHT30;75436;53.502;10.030;2024-03-02T04:14:16;7.19;91.36
85097;SHT30;75436;53.502;10.030;2024-03-02T04:16:42;7.15;91.62
85097;SHT30;75436;53.502;10.030;2024-03-02T04:19:07;7.11;91.59
85097;SHT30;75436;53.502;10.030;2024-03-02T04:21:32;7.14;91.53
85097;SHT30;75436;53.502;10.030;2024-03-02T04:23:58;7.08;91.52
85097;SHT30;75436;53.502;10.030;2024-03-02T04:26:25;7.05;91.61
85097;SHT30;75436;53.502;10.030;2024-03-02T04:28:53;7.04;91.66
85097;SHT30;75436;53.502;10.030;2024-03-02T04:31:20;7.02;91.73
85097;SHT30;75436;53.502;10.030;2024-03-02T04:33:45;6.98;91.82
85097;SHT30;75436;53.502;10.030;2024-03-02T04:36:11;6.98;91.74
85097;SHT30;75436;53.502;10.030;2024-03-02T04:38:38;6.98;91.79
85097;SHT30;75436;53.502;10.030;2024-03-02T04:41:05;6.98;91.79
85097;SHT30;75436;53.502;10.030;2024-03-02T04:43:34;6.96;91.72
85097;SHT30;75436;53.502;10.030;2024-03-02T04:46:01;6.91;91.70
85097;SHT30;75436;53.502;10.030;2024-03-02T04:48:27;6.87;91.84
85097;SHT30;75436;53.502;10.030;2024-03-02T04:50:52;6.87;91.77
85097;SHT30;75436;53.502;10.030;2024-03-02T04:53:18;6.84;91.92
85097;SHT30;75436;53.502;10.030;2024-03-02T04:55:43;6.81;91.98
85097;SHT30;75436;53.502;10.030;2024-03-02T04:58:08;6.80;92.08
85097;SHT30;75436;53.502;10.030;2024-03-02T05:00:34;6.75;92.20
85097;SHT30;75436;53.502;10.030;2024-03-02T05:03:00;6.71;92.34
85097;SHT30;75436;53.502;10.030;2024-03-02T05:05:26;6.67;92.46
85097;SHT30;75436;53.502;10.030;2024-03-02T05:07:51;6.67;92.53
85097;SHT30;75436;53.502;10.030;2024-03-02T05:10:17;6.63;92.65
85097;SHT30;75436;53.502;10.030;2024-03-02T05:12:42;6.63;92.63
85097;SHT30;75436;53.502;10.030;2024-03-02T05:15:09;6.61;92.85
85097;SHT30;75436;53.502;10.030;2024-03-02T05:17:36;6.60;92.81
85097;SHT30;75436;53.502;10.030;2024-03-02T05:20:03;6.64;92.88
85097;SHT30;75436;53.502;10.030;2024-03-02T05:22:29;6.71;92.94
85097;SHT30;75436;53.502;10.030;2024-03-02T05:24:54;6.73;92.87
85097;SHT30;75436;53.502;10.030;2024-03-02T05:27:20;6.73;92.74
85097;SHT30;75436;53.502;10.030;2024-03-02T05:29:45;6.67;92.56
85097;SHT30;75436;53.502;10.030;2024-03-02T05:32:10;6.73;92.54
85097;SHT30;75436;53.502;10.030;2024-03-02T05:34:36;6.65;92.53
85097;SHT30;75436;53.502;10.030;2024-03-02T05:37:01;6.70;92.45
85097;SHT30;75436;53.502;10.030;2024-03-02T05:39:27;6.74;92.45
85097;SHT30;75436;53.502;10.030;2024-03-02T05:41:52;6.77;92.28
85097;SHT30;75436;53.502;10.030;2024-03-02T05:44:18;6.77;92.11
85097;SHT30;75436;53.502;10.030;2024-03-02T05:46:45;6.80;91.85
85097;SHT30;75436;53.502;10.030;2024-03-02T05:49:10;6.78;91.87
85097;SHT30;75436;53.502;10.030;2024-03-02T05:51:36;6.77;91.94
85097;SHT30;75436;53.502;10.030;2024-03-02T05:54:01;6.74;91.87
85097;SHT30;75436;53.502;10.030;2024-03-02T05:56:27;6.73;92.07
85097;SHT30;75436;53.502;10.030;2024-03-02T05:58:53;6.85;91.94
85097;SHT30;75436;53.502;10.030;2024-03-02T06:01:44;6.83;91.67
85097;SHT30;75436;53.502;10.030;2024-03-02T06:04:10;6.74;91.70
85097;SHT30;75436;53.502;10.030;2024-03-02T06:06:40;6.65;91.73
85097;SHT30;75436;53.502;10.030;2024-03-02T06:09:06;6.67;91.77
85097;SHT30;75436;53.502;10.030;2024-03-02T06:11:36;6.65;91.88
85097;SHT30;75436;53.502;10.030;2024-03-02T06:14:07;6.64;91.94
85097;SHT30;75436;53.502;10.030;2024-03-02T06:16:33;6.60;91.99
85097;SHT30;75436;53.502;10.030;2024-03-02T06:18:59;6.58;92.10
85097;SHT30;75436;53.502;10.030;2024-03-02T06:21:26;6.56;92.20
85097;SHT30;75436;53.502;10.030;2024-03-02T06:23:52;6.51;92.28
85097;SHT30;75436;53.502;10.030;2024-03-02T06:26:18;6.48;92.34
85097;SHT30;75436;53.502;10.030;2024-03-02T06:28:45;6.44;92.34
85097;SHT30;75436;53.502;10.030;2024-03-02T06:31:11;6.53;92.35
85097;SHT30;75436;53.502;10.030;2024-03-02T06:33:37;6.50;92.21
85097;SHT30;75436;53.502;10.030;2024-03-02T06:36:03;6.50;92.26
85097;SHT30;75436;53.502;10.030;2024-03-02T06:38:31;6.48;92.14
85097;SHT30;75436;53.502;10.030;2024-03-02T06:40:57;6.47;92.15
85097;SHT30;75436;53.502;10.030;2024-03-02T06:43:23;6.53;92.28
85097;SHT30;75436;53.502;10.030;2024-03-02T06:45:52;6.64;91.92
85097;SHT30;75436;53.502;10.030;2024-03-02T06:48:18;6.61;91.68
85097;SHT30;75436;53.502;10.030;2024-03-02T06:50:46;6.60;91.68
85097;SHT30;75436;53.502;10.030;2024-03-02T06:53:13;6.70;91.52
85097;SHT30;75436;53.502;10.030;2024-03-02T06:55:39;6.70;91.25
85097;SHT30;75436;53.502;10.030;2024-03-02T06:58:04;6.68;91.45
85097;SHT30;75436;53.502;10.030;2024-03-02T07:00:30;6.77;91.41
85097;SHT30;75436;53.502;10.030;2024-03-02T07:02:55;6.80;91.31
85097;SHT30;75436;53.502;10.030;2024-03-02T07:05:21;6.85;91.04
85097;SHT30;75436;53.502;10.030;2024-03-02T07:07:46;6.91;90.89
85097;SHT30;75436;53.502;10.030;2024-03-02T07:10:12;6.98;90.53
85097;SHT30;75436;53.502;10.030;2024-03-02T07:12:37;7.01;90.44
85097;SHT30;75436;53.502;10.030;2024-03-02T07:15:03;7.04;90.42
85097;SHT30;75436;53.502;10.030;2024-03-02T07:17:32;7.08;90.13
85097;SHT30;75436;53.502;10.030;2024-03-02T07:19:58;7.18;90.14
85097;SHT30;75436;53.502;10.030;2024-03-02T07:22:24;7.22;90.02
85097;SHT30;75436;53.502;10.030;2024-03-02T07:24:50;7.23;89.86
85097;SHT30;75436;53.502;10.030;2024-03-02T07:27:16;7.32;89.81
85097;SHT30;75436;53.502;10.030;2024-03-02T07:29:43;7.32;89.67
85097;SHT30;75436;53.502;10.030;2024-03-02T07:32:10;7.37;89.46
85097;SHT30;75436;53.502;10.030;2024-03-02T07:34:36;7.45;89.45
85097;SHT30;75436;53.502;10.030;2024-03-02T07:37:04;7.50;89.28
85097;SHT30;75436;53.502;10.030;2024-03-02T07:39:30;7.53;88.75
85097;SHT30;75436;53.502;10.030;2024-03-02T07:41:56;7.67;88.33
85097;SHT30;75436;53.502;10.030;2024-03-02T07:44:21;7.78;88.20
85097;SHT30;75436;53.502;10.030;2024-03-02T07:46:48;7.77;87.97
85097;SHT30;75436;53.502;10.030;2024-03-02T07:49:18;7.78;87.53
85097;SHT30;75436;53.502;10.030;2024-03-02T07:51:43;7.75;87.97
85097;SHT30;75436;53.502;10.030;2024-03-02T07:54:09;7.73;88.12
85097;SHT30;75436;53.502;10.030;2024-03-02T07:56:35;7.80;87.51
85097;SHT30;75436;53.502;10.030;2024-03-02T07:59:04;7.83;87.79
85097;SHT30;75436;53.502;10.030;2024-03-02T08:01:31;7.83;87.72
85097;SHT30;75436;53.502;10.030;2024-03-02T08:04:01;7.84;87.74
85097;SHT30;75436;53.502;10.030;2024-03-02T08:06:27;7.90;87.98
85097;SHT30;75436;53.502;10.030;2024-03-02T08:08:55;7.94;87.66
85097;SHT30;75436;53.502;10.030;2024-03-02T08:11:21;7.98;87.73
85097;SHT30;75436;53.502;10.030;2024-03-02T08:13:47;8.02;87.77
85097;SHT30;75436;53.502;10.030;2024-03-02T08:16:14;7.99;87.53
85097;SHT30;75436;53.502;10.030;2024-03-02T08:18:40;8.06;87.46
85097;SHT30;75436;53.502;10.030;2024-03-02T08:21:05;8.04;87.25
85097;SHT30;75436;53.502;10.030;2024-03-02T08:23:31;8.06;87.35
85097;SHT30;75436;53.502;10.030;2024-03-02T08:25:57;8.11;87.61
85097;SHT30;75436;53.502;10.030;2024-03-02T08:28:22;8.16;87.28
85097;SHT30;75436;53.502;10.030;2024-03-02T08:30:48;8.18;87.33
85097;SHT30;75436;53.502;10.030;2024-03-02T08:33:13;8.18;87.05
85097;SHT30;75436;53.502;10.030;2024-03-02T08:35:39;8.26;87.26
85097;SHT30;75436;53.502;10.030;2024-03-02T08:38:05;8.38;86.92
85097;SHT30;75436;53.502;10.030;2024-03-02T08:40:32;8.48;86.98
85097;SHT30;75436;53.502;10.030;2024-03-02T08:42:58;8.59;86.28
85097;SHT30;75436;53.502;10.030;2024-03-02T08:45:23;8.67;85.86
85097;SHT30;75436;53.502;10.030;2024-03-02T08:47:49;8.90;85.38
85097;SHT30;75436;53.502;10.030;2024-03-02T08:50:15;9.05;84.08
85097;SHT30;75436;53.502;10.030;2024-03-02T08:52:40;9.15;84.46
85097;SHT30;75436;53.502;10.030;2024-03-02T08:55:06;9.20;84.03
85097;SHT30;75436;53.502;10.030;2024-03-02T08:57:33;9.31;83.31
85097;SHT30;75436;53.502;10.030;2024-03-02T08:59:59;9.45;83.15
85097;SHT30;75436;53.502;10.030;2024-03-02T09:02:26;9.62;82.65
85097;SHT30;75436;53.502;10.030;2024-03-02T09:04:52;9.87;81.63
85097;SHT30;75436;53.502;10.030;2024-03-02T09:07:18;10.18;81.18
85097;SHT30;75436;53.502;10.030;2024-03-02T09:09:43;10.55;79.60
85097;SHT30;75436;53.502;10.030;2024-03-02T09:12:09;10.91;78.51
85097;SHT30;75436;53.502;10.030;2024-03-02T09:14:35;11.34;76.17
85097;SHT30;75436;53.502;10.030;2024-03-02T09:17:02;11.26;75.97
85097;SHT30;75436;53.502;10.030;2024-03-02T09:19:28;11.30;76.30
85097;SHT30;75436;53.502;10.030;2024-03-02T09:21:54;11.58;73.90
85097;SHT30;75436;53.502;10.030;2024-03-02T09:24:21;11.61;75.42
85097;SHT30;75436;53.502;10.030;2024-03-02T09:26:46;11.85;74.92
85097;SHT30;75436;53.502;10.030;2024-03-02T09:29:12;12.04;73.37
85097;SHT30;75436;53.502;10.030;2024-03-02T09:31:41;12.35;71.32
85097;SHT30;75436;53.502;10.030;2024-03-02T09:34:07;12.25;70.97
85097;SHT30;75436;53.502;10.030;2024-03-02T09:36:32;12.42;69.85
85097;SHT30;75436;53.502;10.030;2024-03-02T09:38:58;12.53;71.25
85097;SHT30;75436;53.502;10.030;2024-03-02T09:41:24;12.39;69.62
85097;SHT30;75436;53.502;10.030;2024-03-02T09:43:50;13.29;67.30
85097;SHT30;75436;53.502;10.030;2024-03-02T09:46:16;13.77;65.62
85097;SHT30;75436;53.502;10.030;2024-03-02T09:48:44;14.54;63.96
85097;SHT30;75436;53.502;10.030;2024-03-02T09:51:11;15.07;63.33
85097;SHT30;75436;53.502;10.030;2024-03-02T09:53:37;15.61;60.89
85097;SHT30;75436;53.502;10.030;2024-03-02T09:56:03;15.74;59.94
85097;SHT30;75436;53.502;10.030;2024-03-02T09:58:30;15.36;59.26
85097;SHT30;75436;53.502;10.030;2024-03-02T10:00:56;14.99;60.61
85097;SHT30;75436;53.502;10.030;2024-03-02T10:03:25;14.27;61.74
85097;SHT30;75436;53.502;10.030;2024-03-02T10:05:52;13.89;63.53
85097;SHT30;75436;53.502;10.030;2024-03-02T10:08:17;14.65;63.20
85097;SHT30;75436;53.502;10.030;2024-03-02T10:10:43;15.18;60.08
85097;SHT30;75436;53.502;10.030;2024-03-02T10:13:13;15.43;60.13
85097;SHT30;75436;53.502;10.030;2024-03-02T10:15:41;14.85;60.47
85097;SHT30;75436;53.502;10.030;2024-03-02T10:18:11;14.99;60.19
85097;SHT30;75436;53.502;10.030;2024-03-02T10:20:39;15.22;61.10
85097;SHT30;75436;53.502;10.030;2024-03-02T10:23:15;15.72;59.71
85097;SHT30;75436;53.502;10.030;2024-03-02T10:25:42;14.96;59.97
85097;SHT30;75436;53.502;10.030;2024-03-02T10:28:08;15.57;59.52
85097;SHT30;75436;53.502;10.030;2024-03-02T10:30:34;14.83;60.55
85097;SHT30;75436;53.502;10.030;2024-03-02T10:33:05;14.76;61.26
85097;SHT30;75436;53.502;10.030;2024-03-02T10:35:32;14.99;61.03
85097;SHT30;75436;53.502;10.030;2024-03-02T10:38:01;14.96;62.06
85097;SHT30;75436;53.502;10.030;2024-03-02T10:40:28;14.81;63.41
85097;SHT30;75436;53.502;10.030;2024-03-02T10:42:55;14.17;61.60
85097;SHT30;75436;53.502;10.030;2024-03-02T10:45:23;14.06;61.86
85097;SHT30;75436;53.502;10.030;2024-03-02T10:47:49;14.13;64.05
85097;SHT30;75436;53.502;10.030;2024-03-02T10:50:15;14.11;63.39
85097;SHT30;75436;53.502;10.030;2024-03-02T10:52:41;14.13;61.92
85097;SHT30;75436;53.502;10.030;2024-03-02T10:55:07;14.11;63.24
85097;SHT30;75436;53.502;10.030;2024-03-02T10:57:54;14.45;61.95
85097;SHT30;75436;53.502;10.030;2024-03-02T11:00:24;14.32;61.96
85097;SHT30;75436;53.502;10.030;2024-03-02T11:02:58;14.21;61.58
85097;SHT30;75436;53.502;10.030;2024-03-02T11:05:35;14.23;62.16
85097;SHT30;75436;53.502;10.030;2024-03-02T11:08:06;14.16;62.72
85097;SHT30;75436;53.502;10.030;2024-03-02T11:10:37;14.06;62.30
85097;SHT30;75436;53.502;10.030;2024-03-02T11:13:12;14.14;62.46
85097;SHT30;75436;53.502;10.030;2024-03-02T11:15:40;14.24;63.02
85097;SHT30;75436;53.502;10.030;2024-03-02T11:18:10;14.35;62.55
85097;SHT30;75436;53.502;10.030;2024-03-02T11:20:40;14.27;61.52
85097;SHT30;75436;53.502;10.030;2024-03-02T11:23:07;13.89;62.70
85097;SHT30;75436;53.502;10.030;2024-03-02T11:25:34;14.10;61.35
85097;SHT30;75436;53.502;10.030;2024-03-02T11:28:06;14.06;61.60
85097;SHT30;75436;53.502;10.030;2024-03-02T11:33:04;13.99;62.31
85097;SHT30;75436;53.502;10.030;2024-03-02T11:35:43;14.06;62.21
85097;SHT30;75436;53.502;10.030;2024-03-02T11:38:11;13.91;62.53
85097;SHT30;75436;53.502;10.030;2024-03-02T11:40:40;13.70;63.21
85097;SHT30;75436;53.502;10.030;2024-03-02T11:43:06;13.59;63.03
85097;SHT30;75436;53.502;10.030;2024-03-02T11:45:33;13.74;63.48
85097;SHT30;75436;53.502;10.030;2024-03-02T11:48:00;13.72;61.83
85097;SHT30;75436;53.502;10.030;2024-03-02T11:50:52;13.51;63.21
85097;SHT30;75436;53.502;10.030;2024-03-02T11:53:20;13.38;64.37
85097;SHT30;75436;53.502;10.030;2024-03-02T11:55:46;13.41;62.84
85097;SHT30;75436;53.502;10.030;2024-03-02T11:58:14;13.59;62.75
85097;SHT30;75436;53.502;10.030;2024-03-02T12:00:39;13.55;63.55
85097;SHT30;75436;53.502;10.030;2024-03-02T12:03:08;13.39;63.78
85097;SHT30;75436;53.502;10.030;2024-03-02T12:05:35;13.36;63.71
85097;SHT30;75436;53.502;10.030;2024-03-02T12:08:06;13.46;64.13
85097;SHT30;75436;53.502;10.030;2024-03-02T12:10:34;13.44;63.44
85097;SHT30;75436;53.502;10.030;2024-03-02T12:13:03;13.56;62.50
85097;SHT30;75436;53.502;10.030;2024-03-02T12:15:33;13.51;63.10
85097;SHT30;75436;53.502;10.030;2024-03-02T12:18:01;13.61;62.13
85097;SHT30;75436;53.502;10.030;2024-03-02T12:20:31;13.65;61.16
85097;SHT30;75436;53.502;10.030;2024-03-02T12:23:02;13.67;62.50
85097;SHT30;75436;53.502;10.030;2024-03-02T12:25:28;13.73;63.09
85097;SHT30;75436;53.502;10.030;2024-03-02T12:27:59;13.84;61.32
85097;SHT30;75436;53.502;10.030;2024-03-02T12:30:29;14.00;61.79
85097;SHT30;75436;53.502;10.030;2024-03-02T12:32:54;14.07;63.27
85097;SHT30;75436;53.502;10.030;2024-03-02T12:35:20;14.06;61.63
85097;SHT30;75436;53.502;10.030;2024-03-02T12:37:51;13.91;61.29
85097;SHT30;75436;53.502;10.030;2024-03-02T12:40:18;13.80;63.48
85097;SHT30;75436;53.502;10.030;2024-03-02T12:42:48;13.82;62.98
85097;SHT30;75436;53.502;10.030;2024-03-02T12:45:14;13.82;62.62
85097;SHT30;75436;53.502;10.030;2024-03-02T12:47:41;13.84;64.15
85097;SHT30;75436;53.502;10.030;2024-03-02T12:50:08;13.80;63.08
85097;SHT30;75436;53.502;10.030;2024-03-02T12:52:35;13.74;62.93
85097;SHT30;75436;53.502;10.030;2024-03-02T12:55:04;13.84;62.58
85097;SHT30;75436;53.502;10.030;2024-03-02T12:57:32;13.82;63.09
85097;SHT30;75436;53.502;10.030;2024-03-02T13:00:05;13.77;63.42
85097;SHT30;75436;53.502;10.030;2024-03-02T13:02:40;13.77;64.01
85097;SHT30;75436;53.502;10.030;2024-03-02T13:05:07;13.66;63.75
85097;SHT30;75436;53.502;10.030;2024-03-02T13:07:39;13.70;64.02
85097;SHT30;75436;53.502;10.030;2024-03-02T13:10:06;13.82;63.48
85097;SHT30;75436;53.502;10.030;2024-03-02T13:12:35;13.80;63.81
85097;SHT30;75436;53.502;10.030;2024-03-02T13:15:03;13.82;62.08
85097;SHT30;75436;53.502;10.030;2024-03-02T13:17:29;13.77;62.84
85097;SHT30;75436;53.502;10.030;2024-03-02T13:19:59;13.79;63.67
85097;SHT30;75436;53.502;10.030;2024-03-02T13:22:25;13.82;62.43
85097;SHT30;75436;53.502;10.030;2024-03-02T13:24:52;13.62;65.15
85097;SHT30;75436;53.502;10.030;2024-03-02T13:27:19;13.61;63.45
85097;SHT30;75436;53.502;10.030;2024-03-02T13:29:46;13.46;63.60
85097;SHT30;75436;53.502;10.030;2024-03-02T13:32:13;13.63;63.98
85097;SHT30;75436;53.502;10.030;2024-03-02T13:34:39;13.63;63.50
85097;SHT30;75436;53.502;10.030;2024-03-02T13:37:05;13.65;63.31
85097;SHT30;75436;53.502;10.030;2024-03-02T13:39:31;13.69;64.02
85097;SHT30;75436;53.502;10.030;2024-03-02T13:42:00;13.76;63.80
85097;SHT30;75436;53.502;10.030;2024-03-02T13:44:31;14.02;63.75
85097;SHT30;75436;53.502;10.030;2024-03-02T13:46:56;14.11;63.02
85097;SHT30;75436;53.502;10.030;2024-03-02T13:49:23;14.25;63.94
85097;SHT30;75436;53.502;10.030;2024-03-02T13:51:49;14.58;62.67
85097;SHT30;75436;53.502;10.030;2024-03-02T13:54:14;14.68;61.93
85097;SHT30;75436;53.502;10.030;2024-03-02T13:56:40;14.92;60.62
85097;SHT30;75436;53.502;10.030;2024-03-02T13:59:06;15.04;59.28
85097;SHT30;75436;53.502;10.030;2024-03-02T14:01:32;15.43;58.90
85097;SHT30;75436;53.502;10.030;2024-03-02T14:03:58;16.16;57.72
85097;SHT30;75436;53.502;10.030;2024-03-02T14:06:24;16.46;56.85
85097;SHT30;75436;53.502;10.030;2024-03-02T14:08:51;16.98;55.10
85097;SHT30;75436;53.502;10.030;2024-03-02T14:11:16;16.81;56.37
85097;SHT30;75436;53.502;10.030;2024-03-02T14:13:42;16.63;54.79
85097;SHT30;75436;53.502;10.030;2024-03-02T14:16:10;16.52;56.78
85097;SHT30;75436;53.502;10.030;2024-03-02T14:18:36;15.97;57.72
85097;SHT30;75436;53.502;10.030;2024-03-02T14:21:01;15.41;59.03
85097;SHT30;75436;53.502;10.030;2024-03-02T14:23:27;15.19;60.06
85097;SHT30;75436;53.502;10.030;2024-03-02T14:25:55;15.10;61.35
85097;SHT30;75436;53.502;10.030;2024-03-02T14:28:20;14.92;61.20
85097;SHT30;75436;53.502;10.030;2024-03-02T14:30:46;14.82;62.18
85097;SHT30;75436;53.502;10.030;2024-03-02T14:33:11;14.61;61.30
85097;SHT30;75436;53.502;10.030;2024-03-02T14:35:37;14.52;62.16
85097;SHT30;75436;53.502;10.030;2024-03-02T14:38:04;14.37;60.06
85097;SHT30;75436;53.502;10.030;2024-03-02T14:40:30;14.31;61.90
85097;SHT30;75436;53.502;10.030;2024-03-02T14:42:55;14.14;62.10
85097;SHT30;75436;53.502;10.030;2024-03-02T14:45:21;14.13;61.30
85097;SHT30;75436;53.502;10.030;2024-03-02T14:47:46;14.10;64.23
85097;SHT30;75436;53.502;10.030;2024-03-02T14:50:12;14.03;62.76
85097;SHT30;75436;53.502;10.030;2024-03-02T14:52:37;13.90;61.25
85097;SHT30;75436;53.502;10.030;2024-03-02T14:55:03;13.93;62.89
85097;SHT30;75436;53.502;10.030;2024-03-02T14:57:29;13.74;62.88
85097;SHT30;75436;53.502;10.030;2024-03-02T14:59:55;13.80;62.35
85097;SHT30;75436;53.502;10.030;2024-03-02T15:02:20;13.72;63.64
85097;SHT30;75436;53.502;10.030;2024-03-02T15:04:47;13.76;63.38
85097;SHT30;75436;53.502;10.030;2024-03-02T15:07:13;13.74;63.24
85097;SHT30;75436;53.502;10.030;2024-03-02T15:09:39;13.77;64.32
85097;SHT30;75436;53.502;10.030;2024-03-02T15:12:05;13.63;64.47
85097;SHT30;75436;53.502;10.030;2024-03-02T15:14:32;13.53;64.80
85097;SHT30;75436;53.502;10.030;2024-03-02T15:16:58;13.32;66.57
85097;SHT30;75436;53.502;10.030;2024-03-02T15:19:23;13.18;66.17
85097;SHT30;75436;53.502;10.030;2024-03-02T15:21:49;13.42;65.44
85097;SHT30;75436;53.502;10.030;2024-03-02T15:24:14;13.32;66.53
85097;SHT30;75436;53.502;10.030;2024-03-02T15:26:40;13.28;67.01